sensor_id;sensor_type;location;lat;lon;timestamp;temperature;humidity
75430;DHT22;64127;51.488;5.462;2023-01-15T00:00:56;9.00;99.90
75430;DHT22;64127;51.488;5.462;2023-01-15T00:03:29;9.00;99.90
75430;DHT22;64127;51.488;5.462;2023-01-15T00:06:02;9.00;99.90
75430;DHT22;64127;51.488;5.462;2023-01-15T00:08:34;9.00;99.90
75430;DHT22;64127;51.488;5.462;2023-01-15T00:11:06;9.00;99.90
75430;DHT22;64127;51.488;5.462;2023-01-15T00:13:39;9.00;99.90
75430;DHT22;64127;51.488;5.462;2023-01-15T00:16:22;9.00;99.90
75430;DHT22;64127;51.488;5.462;2023-01-15T00:18:58;8.90;99.90
75430;DHT22;64127;51.488;5.462;2023-01-15T00:21:32;8.90;99.90
75430;DHT22;64127;51.488;5.462;2023-01-15T00:24:04;8.90;99.90
75430;DHT22;64127;51.488;5.462;2023-01-15T00:26:55;8.90;99.90
75430;DHT22;64127;51.488;5.462;2023-01-15T00:29:45;8.80;99.90
75430;DHT22;64127;51.488;5.462;2023-01-15T00:32:17;8.80;99.90
75430;DHT22;64127;51.488;5.462;2023-01-15T00:34:49;8.80;99.90
75430;DHT22;64127;51.488;5.462;2023-01-15T00:37:21;8.80;99.90
75430;DHT22;64127;51.488;5.462;2023-01-15T00:39:53;8.80;99.90
75430;DHT22;64127;51.488;5.462;2023-01-15T00:42:25;8.80;99.90
75430;DHT22;64127;51.488;5.462;2023-01-15T00:44:58;8.80;99.90
75430;DHT22;64127;51.488;5.462;2023-01-15T00:47:41;8.70;99.90
75430;DHT22;64127;51.488;5.462;2023-01-15T00:50:14;8.70;99.90
75430;DHT22;64127;51.488;5.462;2023-01-15T00:52:46;8.70;99.90
75430;DHT22;64127;51.488;5.462;2023-01-15T00:55:18;8.70;99.90
75430;DHT22;64127;51.488;5.462;2023-01-15T00:57:51;8.70;99.90
75430;DHT22;64127;51.488;5.462;2023-01-15T01:00:23;8.70;99.90
75430;DHT22;64127;51.488;5.462;2023-01-15T01:02:55;8.70;99.90
75430;DHT22;64127;51.488;5.462;2023-01-15T01:05:27;8.70;99.90
75430;DHT22;64127;51.488;5.462;2023-01-15T01:07:59;8.70;99.90
75430;DHT22;64127;51.488;5.462;2023-01-15T01:10:32;8.60;99.90
75430;DHT22;64127;51.488;5.462;2023-01-15T01:13:03;8.70;99.90
75430;DHT22;64127;51.488;5.462;2023-01-15T01:15:37;8.60;99.90
75430;DHT22;64127;51.488;5.462;2023-01-15T01:18:09;8.60;99.90
75430;DHT22;64127;51.488;5.462;2023-01-15T01:20:41;8.60;99.90
75430;DHT22;64127;51.488;5.462;2023-01-15T01:23:13;8.60;99.90
75430;DHT22;64127;51.488;5.462;2023-01-15T01:25:45;8.60;99.90
75430;DHT22;64127;51.488;5.462;2023-01-15T01:28:17;8.60;99.90
75430;DHT22;64127;51.488;5.462;2023-01-15T01:30:49;8.60;99.90
75430;DHT22;64127;51.488;5.462;2023-01-15T01:33:21;8.60;99.90
75430;DHT22;64127;51.488;5.462;2023-01-15T01:35:53;8.60;99.90
75430;DHT22;64127;51.488;5.462;2023-01-15T01:38:25;8.60;99.90
75430;DHT22;64127;51.488;5.462;2023-01-15T01:40:57;8.50;99.90
75430;DHT22;64127;51.488;5.462;2023-01-15T01:43:29;8.50;99.90
75430;DHT22;64127;51.488;5.462;2023-01-15T01:46:01;8.50;99.90
75430;DHT22;64127;51.488;5.462;2023-01-15T01:48:33;8.60;99.90
75430;DHT22;64127;51.488;5.462;2023-01-15T01:51:06;8.50;99.90
75430;DHT22;64127;51.488;5.462;2023-01-15T01:53:38;8.50;99.90
75430;DHT22;64127;51.488;5.462;2023-01-15T01:56:10;8.50;99.90
75430;DHT22;64127;51.488;5.462;2023-01-15T01:58:45;8.50;99.90
75430;DHT22;64127;51.488;5.462;2023-01-15T02:01:23;8.50;99.90
75430;DHT22;64127;51.488;5.462;2023-01-15T02:03:56;8.50;99.90
75430;DHT22;64127;51.488;5.462;2023-01-15T02:06:29;8.50;99.90
75430;DHT22;64127;51.488;5.462;2023-01-15T02:09:02;8.50;99.90
75430;DHT22;64127;51.488;5.462;2023-01-15T02:11:35;8.50;99.90
75430;DHT22;64127;51.488;5.462;2023-01-15T02:14:34;8.50;99.90
75430;DHT22;64127;51.488;5.462;2023-01-15T02:17:27;8.50;99.90
75430;DHT22;64127;51.488;5.462;2023-01-15T02:20:39;8.50;99.90
75430;DHT22;64127;51.488;5.462;2023-01-15T02:23:32;8.50;99.90
75430;DHT22;64127;51.488;5.462;2023-01-15T02:29:13;8.50;99.90
75430;DHT22;64127;51.488;5.462;2023-01-15T02:31:51;8.40;99.90
75430;DHT22;64127;51.488;5.462;2023-01-15T02:34:33;8.40;99.90
75430;DHT22;64127;51.488;5.462;2023-01-15T02:37:13;8.40;99.90
75430;DHT22;64127;51.488;5.462;2023-01-15T02:39:51;8.40;99.90
75430;DHT22;64127;51.488;5.462;2023-01-15T02:42:28;8.40;99.90
75430;DHT22;64127;51.488;5.462;2023-01-15T02:45:03;8.40;99.90
75430;DHT22;64127;51.488;5.462;2023-01-15T02:47:40;8.40;99.90
75430;DHT22;64127;51.488;5.462;2023-01-15T02:50:16;8.40;99.90
75430;DHT22;64127;51.488;5.462;2023-01-15T02:52:57;8.40;99.90
75430;DHT22;64127;51.488;5.462;2023-01-15T02:55:38;8.40;99.90
75430;DHT22;64127;51.488;5.462;2023-01-15T02:58:17;8.40;99.90
75430;DHT22;64127;51.488;5.462;2023-01-15T03:00:55;8.30;99.90
75430;DHT22;64127;51.488;5.462;2023-01-15T03:03:39;8.30;99.90
75430;DHT22;64127;51.488;5.462;2023-01-15T03:09:35;8.30;99.90
75430;DHT22;64127;51.488;5.462;2023-01-15T03:12:29;8.30;99.90
75430;DHT22;64127;51.488;5.462;2023-01-15T03:15:30;8.30;99.90
75430;DHT22;64127;51.488;5.462;2023-01-15T03:18:27;8.20;99.90
75430;DHT22;64127;51.488;5.462;2023-01-15T03:21:07;8.20;99.90
75430;DHT22;64127;51.488;5.462;2023-01-15T03:23:45;8.20;99.90
75430;DHT22;64127;51.488;5.462;2023-01-15T03:26:20;8.20;99.90
75430;DHT22;64127;51.488;5.462;2023-01-15T03:28:52;8.20;99.90
75430;DHT22;64127;51.488;5.462;2023-01-15T03:31:25;8.20;99.90
75430;DHT22;64127;51.488;5.462;2023-01-15T03:33:59;8.20;99.90
75430;DHT22;64127;51.488;5.462;2023-01-15T03:36:33;8.30;99.90
75430;DHT22;64127;51.488;5.462;2023-01-15T03:39:05;8.20;99.90
75430;DHT22;64127;51.488;5.462;2023-01-15T03:45:11;8.20;99.90
75430;DHT22;64127;51.488;5.462;2023-01-15T03:50:48;8.20;99.90
75430;DHT22;64127;51.488;5.462;2023-01-15T03:56:31;8.10;99.90
75430;DHT22;64127;51.488;5.462;2023-01-15T03:59:12;8.20;99.90
75430;DHT22;64127;51.488;5.462;2023-01-15T04:01:52;8.10;99.90
75430;DHT22;64127;51.488;5.462;2023-01-15T04:04:26;8.10;99.90
75430;DHT22;64127;51.488;5.462;2023-01-15T04:07:00;8.10;99.90
75430;DHT22;64127;51.488;5.462;2023-01-15T04:09:38;8.10;99.90
75430;DHT22;64127;51.488;5.462;2023-01-15T04:12:11;8.10;99.90
75430;DHT22;64127;51.488;5.462;2023-01-15T04:14:43;8.10;99.90
75430;DHT22;64127;51.488;5.462;2023-01-15T04:17:15;8.10;99.90
75430;DHT22;64127;51.488;5.462;2023-01-15T04:19:47;8.10;99.90
75430;DHT22;64127;51.488;5.462;2023-01-15T04:22:19;8.10;99.90
75430;DHT22;64127;51.488;5.462;2023-01-15T04:24:51;8.10;99.90
75430;DHT22;64127;51.488;5.462;2023-01-15T04:27:25;8.10;99.90
75430;DHT22;64127;51.488;5.462;2023-01-15T04:29:58;8.10;99.90
75430;DHT22;64127;51.488;5.462;2023-01-15T04:32:30;8.10;99.90
75430;DHT22;64127;51.488;5.462;2023-01-15T04:35:02;8.10;99.90
75430;DHT22;64127;51.488;5.462;2023-01-15T04:37:34;8.00;99.90
75430;DHT22;64127;51.488;5.462;2023-01-15T04:40:06;8.10;99.90
75430;DHT22;64127;51.488;5.462;2023-01-15T04:42:39;8.00;99.90
75430;DHT22;64127;51.488;5.462;2023-01-15T04:45:29;8.00;99.90
75430;DHT22;64127;51.488;5.462;2023-01-15T04:48:03;8.00;99.90
75430;DHT22;64127;51.488;5.462;2023-01-15T04:50:35;8.00;99.90
75430;DHT22;64127;51.488;5.462;2023-01-15T04:53:10;8.00;99.90
75430;DHT22;64127;51.488;5.462;2023-01-15T04:55:43;8.00;99.90
75430;DHT22;64127;51.488;5.462;2023-01-15T04:58:15;8.00;99.90
75430;DHT22;64127;51.488;5.462;2023-01-15T05:00:46;8.00;99.90
75430;DHT22;64127;51.488;5.462;2023-01-15T05:03:18;8.00;99.90
75430;DHT22;64127;51.488;5.462;2023-01-15T05:05:51;7.90;99.90
75430;DHT22;64127;51.488;5.462;2023-01-15T05:08:23;7.90;99.90
75430;DHT22;64127;51.488;5.462;2023-01-15T05:10:55;7.90;99.90
75430;DHT22;64127;51.488;5.462;2023-01-15T05:13:27;7.90;99.90
75430;DHT22;64127;51.488;5.462;2023-01-15T05:16:21;7.90;99.90
75430;DHT22;64127;51.488;5.462;2023-01-15T05:19:00;7.90;99.90
75430;DHT22;64127;51.488;5.462;2023-01-15T05:21:36;7.90;99.90
75430;DHT22;64127;51.488;5.462;2023-01-15T05:24:15;7.90;99.90
75430;DHT22;64127;51.488;5.462;2023-01-15T05:26:48;7.90;99.90
75430;DHT22;64127;51.488;5.462;2023-01-15T05:29:20;7.90;99.90
75430;DHT22;64127;51.488;5.462;2023-01-15T05:31:52;7.90;99.90
75430;DHT22;64127;51.488;5.462;2023-01-15T05:34:24;7.80;99.90
75430;DHT22;64127;51.488;5.462;2023-01-15T05:36:56;7.90;99.90
75430;DHT22;64127;51.488;5.462;2023-01-15T05:39:28;7.90;99.90
75430;DHT22;64127;51.488;5.462;2023-01-15T05:42:00;7.90;99.90
75430;DHT22;64127;51.488;5.462;2023-01-15T05:44:32;7.90;99.90
75430;DHT22;64127;51.488;5.462;2023-01-15T05:47:04;7.90;99.90
75430;DHT22;64127;51.488;5.462;2023-01-15T05:49:38;7.90;99.90
75430;DHT22;64127;51.488;5.462;2023-01-15T05:52:10;7.90;99.90
75430;DHT22;64127;51.488;5.462;2023-01-15T05:54:42;7.90;99.90
75430;DHT22;64127;51.488;5.462;2023-01-15T05:57:15;7.90;99.90
75430;DHT22;64127;51.488;5.462;2023-01-15T05:59:46;7.90;99.90
75430;DHT22;64127;51.488;5.462;2023-01-15T06:02:21;7.90;99.90
75430;DHT22;64127;51.488;5.462;2023-01-15T06:04:53;7.90;99.90
75430;DHT22;64127;51.488;5.462;2023-01-15T06:07:25;7.90;99.90
75430;DHT22;64127;51.488;5.462;2023-01-15T06:09:57;7.90;99.90
75430;DHT22;64127;51.488;5.462;2023-01-15T06:12:29;7.80;99.90
75430;DHT22;64127;51.488;5.462;2023-01-15T06:15:03;7.90;99.90
75430;DHT22;64127;51.488;5.462;2023-01-15T06:17:36;7.80;99.90
75430;DHT22;64127;51.488;5.462;2023-01-15T06:20:08;7.90;99.90
75430;DHT22;64127;51.488;5.462;2023-01-15T06:22:42;7.90;99.90
75430;DHT22;64127;51.488;5.462;2023-01-15T06:25:14;7.90;99.90
75430;DHT22;64127;51.488;5.462;2023-01-15T06:27:46;7.90;99.90
75430;DHT22;64127;51.488;5.462;2023-01-15T06:30:19;7.80;99.90
75430;DHT22;64127;51.488;5.462;2023-01-15T06:32:51;7.80;99.90
75430;DHT22;64127;51.488;5.462;2023-01-15T06:35:24;7.80;99.90
75430;DHT22;64127;51.488;5.462;2023-01-15T06:37:57;7.80;99.90
75430;DHT22;64127;51.488;5.462;2023-01-15T06:40:29;7.70;99.90
75430;DHT22;64127;51.488;5.462;2023-01-15T06:43:01;7.70;99.90
75430;DHT22;64127;51.488;5.462;2023-01-15T06:45:52;7.70;99.90
75430;DHT22;64127;51.488;5.462;2023-01-15T06:48:56;7.70;99.90
75430;DHT22;64127;51.488;5.462;2023-01-15T06:51:28;7.60;99.90
75430;DHT22;64127;51.488;5.462;2023-01-15T06:54:01;7.60;99.90
75430;DHT22;64127;51.488;5.462;2023-01-15T06:56:33;7.60;99.90
75430;DHT22;64127;51.488;5.462;2023-01-15T06:59:05;7.60;99.90
75430;DHT22;64127;51.488;5.462;2023-01-15T07:01:37;7.60;99.90
75430;DHT22;64127;51.488;5.462;2023-01-15T07:04:09;7.60;99.90
75430;DHT22;64127;51.488;5.462;2023-01-15T07:06:41;7.50;99.90
75430;DHT22;64127;51.488;5.462;2023-01-15T07:09:14;7.50;99.90
75430;DHT22;64127;51.488;5.462;2023-01-15T07:11:46;7.50;99.90
75430;DHT22;64127;51.488;5.462;2023-01-15T07:14:23;7.50;99.90
75430;DHT22;64127;51.488;5.462;2023-01-15T07:16:56;7.50;99.90
75430;DHT22;64127;51.488;5.462;2023-01-15T07:19:29;7.40;99.90
75430;DHT22;64127;51.488;5.462;2023-01-15T07:22:01;7.50;99.90
75430;DHT22;64127;51.488;5.462;2023-01-15T07:24:34;7.40;99.90
75430;DHT22;64127;51.488;5.462;2023-01-15T07:27:06;7.40;99.90
75430;DHT22;64127;51.488;5.462;2023-01-15T07:29:38;7.40;99.90
75430;DHT22;64127;51.488;5.462;2023-01-15T07:32:10;7.40;99.90
75430;DHT22;64127;51.488;5.462;2023-01-15T07:34:43;7.40;99.90
75430;DHT22;64127;51.488;5.462;2023-01-15T07:37:15;7.40;99.90
75430;DHT22;64127;51.488;5.462;2023-01-15T07:39:47;7.40;99.90
75430;DHT22;64127;51.488;5.462;2023-01-15T07:42:19;7.40;99.90
75430;DHT22;64127;51.488;5.462;2023-01-15T07:45:09;7.40;99.90
75430;DHT22;64127;51.488;5.462;2023-01-15T07:48:00;7.40;99.90
75430;DHT22;64127;51.488;5.462;2023-01-15T07:50:50;7.40;99.90
75430;DHT22;64127;51.488;5.462;2023-01-15T07:53:22;7.40;99.90
75430;DHT22;64127;51.488;5.462;2023-01-15T07:55:54;7.40;99.90
75430;DHT22;64127;51.488;5.462;2023-01-15T07:58:26;7.40;99.90
75430;DHT22;64127;51.488;5.462;2023-01-15T08:00:58;7.40;99.90
75430;DHT22;64127;51.488;5.462;2023-01-15T08:03:30;7.40;99.90
75430;DHT22;64127;51.488;5.462;2023-01-15T08:06:02;7.40;99.90
75430;DHT22;64127;51.488;5.462;2023-01-15T08:08:34;7.40;99.90
75430;DHT22;64127;51.488;5.462;2023-01-15T08:11:06;7.40;99.90
75430;DHT22;64127;51.488;5.462;2023-01-15T08:13:57;7.40;99.90
75430;DHT22;64127;51.488;5.462;2023-01-15T08:16:47;7.30;99.90
75430;DHT22;64127;51.488;5.462;2023-01-15T08:19:19;7.30;99.90
75430;DHT22;64127;51.488;5.462;2023-01-15T08:21:51;7.20;99.90
75430;DHT22;64127;51.488;5.462;2023-01-15T08:24:23;7.20;99.90
75430;DHT22;64127;51.488;5.462;2023-01-15T08:26:55;7.10;99.90
75430;DHT22;64127;51.488;5.462;2023-01-15T08:29:27;7.10;99.90
75430;DHT22;64127;51.488;5.462;2023-01-15T08:31:59;7.10;99.90
75430;DHT22;64127;51.488;5.462;2023-01-15T08:34:33;7.00;99.90
75430;DHT22;64127;51.488;5.462;2023-01-15T08:37:06;7.00;99.90
75430;DHT22;64127;51.488;5.462;2023-01-15T08:39:38;7.00;99.90
75430;DHT22;64127;51.488;5.462;2023-01-15T08:42:10;7.00;99.90
75430;DHT22;64127;51.488;5.462;2023-01-15T08:44:41;7.00;99.90
75430;DHT22;64127;51.488;5.462;2023-01-15T08:47:15;7.00;99.90
75430;DHT22;64127;51.488;5.462;2023-01-15T08:49:48;7.00;99.90
75430;DHT22;64127;51.488;5.462;2023-01-15T08:52:20;7.00;99.90
75430;DHT22;64127;51.488;5.462;2023-01-15T08:54:52;7.00;99.90
75430;DHT22;64127;51.488;5.462;2023-01-15T08:57:24;7.20;99.90
75430;DHT22;64127;51.488;5.462;2023-01-15T08:59:56;7.40;99.90
75430;DHT22;64127;51.488;5.462;2023-01-15T09:02:28;7.70;99.90
75430;DHT22;64127;51.488;5.462;2023-01-15T09:05:00;8.00;99.90
75430;DHT22;64127;51.488;5.462;2023-01-15T09:07:32;8.30;99.90
75430;DHT22;64127;51.488;5.462;2023-01-15T09:10:06;8.50;99.90
75430;DHT22;64127;51.488;5.462;2023-01-15T09:12:38;8.60;99.90
75430;DHT22;64127;51.488;5.462;2023-01-15T09:15:10;8.50;99.90
75430;DHT22;64127;51.488;5.462;2023-01-15T09:17:43;8.20;99.90
75430;DHT22;64127;51.488;5.462;2023-01-15T09:20:15;8.00;99.90
75430;DHT22;64127;51.488;5.462;2023-01-15T09:22:47;7.80;99.90
75430;DHT22;64127;51.488;5.462;2023-01-15T09:25:19;7.70;99.90
75430;DHT22;64127;51.488;5.462;2023-01-15T09:27:55;7.60;99.90
75430;DHT22;64127;51.488;5.462;2023-01-15T09:30:27;7.70;99.90
75430;DHT22;64127;51.488;5.462;2023-01-15T09:33:00;7.70;99.90
75430;DHT22;64127;51.488;5.462;2023-01-15T09:35:32;7.70;99.90
75430;DHT22;64127;51.488;5.462;2023-01-15T09:38:04;7.70;99.90
75430;DHT22;64127;51.488;5.462;2023-01-15T09:40:46;7.80;99.90
75430;DHT22;64127;51.488;5.462;2023-01-15T09:46:33;7.90;99.90
75430;DHT22;64127;51.488;5.462;2023-01-15T09:49:33;8.10;99.90
75430;DHT22;64127;51.488;5.462;2023-01-15T09:58:02;8.90;99.90
75430;DHT22;64127;51.488;5.462;2023-01-15T10:00:42;9.10;99.90
75430;DHT22;64127;51.488;5.462;2023-01-15T10:06:32;8.90;99.90
75430;DHT22;64127;51.488;5.462;2023-01-15T10:09:19;9.00;99.90
75430;DHT22;64127;51.488;5.462;2023-01-15T10:11:59;9.30;99.90
75430;DHT22;64127;51.488;5.462;2023-01-15T10:15:09;9.40;99.90
75430;DHT22;64127;51.488;5.462;2023-01-15T10:17:57;9.20;99.90
75430;DHT22;64127;51.488;5.462;2023-01-15T10:26:35;8.70;99.90
75430;DHT22;64127;51.488;5.462;2023-01-15T10:32:38;9.10;99.90
75430;DHT22;64127;51.488;5.462;2023-01-15T10:46:59;9.40;99.90
75430;DHT22;64127;51.488;5.462;2023-01-15T10:49:33;10.10;99.90
75430;DHT22;64127;51.488;5.462;2023-01-15T10:55:20;10.70;99.90
75430;DHT22;64127;51.488;5.462;2023-01-15T11:01:45;10.60;99.90
75430;DHT22;64127;51.488;5.462;2023-01-15T11:04:19;10.90;99.90
75430;DHT22;64127;51.488;5.462;2023-01-15T11:06:52;11.10;99.90
75430;DHT22;64127;51.488;5.462;2023-01-15T11:09:25;11.10;99.40
75430;DHT22;64127;51.488;5.462;2023-01-15T11:12:19;11.10;99.30
75430;DHT22;64127;51.488;5.462;2023-01-15T11:14:56;11.20;99.20
75430;DHT22;64127;51.488;5.462;2023-01-15T11:17:46;11.10;99.00
75430;DHT22;64127;51.488;5.462;2023-01-15T11:20:45;11.00;98.60
75430;DHT22;64127;51.488;5.462;2023-01-15T11:23:20;10.90;98.90
75430;DHT22;64127;51.488;5.462;2023-01-15T11:25:58;11.00;98.80
75430;DHT22;64127;51.488;5.462;2023-01-15T11:28:39;11.00;98.70
75430;DHT22;64127;51.488;5.462;2023-01-15T11:31:14;10.60;98.60
75430;DHT22;64127;51.488;5.462;2023-01-15T11:33:59;10.30;99.20
75430;DHT22;64127;51.488;5.462;2023-01-15T11:36:33;10.10;99.40
75430;DHT22;64127;51.488;5.462;2023-01-15T11:39:25;9.80;99.90
75430;DHT22;64127;51.488;5.462;2023-01-15T11:42:15;9.70;99.90
75430;DHT22;64127;51.488;5.462;2023-01-15T11:45:18;9.90;99.90
75430;DHT22;64127;51.488;5.462;2023-01-15T11:48:19;9.80;99.90
75430;DHT22;64127;51.488;5.462;2023-01-15T11:51:14;9.50;99.90
75430;DHT22;64127;51.488;5.462;2023-01-15T11:53:50;9.30;99.90
75430;DHT22;64127;51.488;5.462;2023-01-15T11:56:29;9.20;99.90
75430;DHT22;64127;51.488;5.462;2023-01-15T11:59:09;9.10;99.90
75430;DHT22;64127;51.488;5.462;2023-01-15T12:02:04;8.90;99.90
75430;DHT22;64127;51.488;5.462;2023-01-15T12:04:54;8.70;99.90
75430;DHT22;64127;51.488;5.462;2023-01-15T12:07:30;8.80;99.90
75430;DHT22;64127;51.488;5.462;2023-01-15T12:10:06;8.90;99.90
75430;DHT22;64127;51.488;5.462;2023-01-15T12:13:05;8.80;99.90
75430;DHT22;64127;51.488;5.462;2023-01-15T12:25:19;8.70;99.90
75430;DHT22;64127;51.488;5.462;2023-01-15T12:28:26;8.80;99.90
75430;DHT22;64127;51.488;5.462;2023-01-15T12:31:11;8.70;99.90
75430;DHT22;64127;51.488;5.462;2023-01-15T12:33:55;8.60;99.90
75430;DHT22;64127;51.488;5.462;2023-01-15T12:36:46;8.60;99.90
75430;DHT22;64127;51.488;5.462;2023-01-15T12:39:33;8.50;99.90
75430;DHT22;64127;51.488;5.462;2023-01-15T12:42:16;8.50;99.90
75430;DHT22;64127;51.488;5.462;2023-01-15T12:45:30;8.50;99.90
75430;DHT22;64127;51.488;5.462;2023-01-15T12:48:28;8.50;99.90
75430;DHT22;64127;51.488;5.462;2023-01-15T12:51:13;8.60;99.90
75430;DHT22;64127;51.488;5.462;2023-01-15T12:54:00;8.70;99.90
75430;DHT22;64127;51.488;5.462;2023-01-15T12:56:56;8.70;99.90
75430;DHT22;64127;51.488;5.462;2023-01-15T12:59:39;8.70;99.90
75430;DHT22;64127;51.488;5.462;2023-01-15T13:02:31;8.60;99.90
75430;DHT22;64127;51.488;5.462;2023-01-15T13:05:18;8.50;99.90
75430;DHT22;64127;51.488;5.462;2023-01-15T13:08:00;8.50;99.90
75430;DHT22;64127;51.488;5.462;2023-01-15T13:10:39;8.50;99.90
75430;DHT22;64127;51.488;5.462;2023-01-15T13:16:01;8.80;99.90
75430;DHT22;64127;51.488;5.462;2023-01-15T13:22:15;8.70;99.90
75430;DHT22;64127;51.488;5.462;2023-01-15T13:25:10;8.80;99.90
75430;DHT22;64127;51.488;5.462;2023-01-15T13:37:29;9.30;99.90
75430;DHT22;64127;51.488;5.462;2023-01-15T13:40:38;9.40;99.90
75430;DHT22;64127;51.488;5.462;2023-01-15T13:46:02;9.80;99.90
75430;DHT22;64127;51.488;5.462;2023-01-15T13:48:47;9.90;99.90
75430;DHT22;64127;51.488;5.462;2023-01-15T13:51:34;10.00;99.90
75430;DHT22;64127;51.488;5.462;2023-01-15T13:54:26;9.90;99.90
75430;DHT22;64127;51.488;5.462;2023-01-15T14:00:05;9.30;99.90
75430;DHT22;64127;51.488;5.462;2023-01-15T14:02:50;9.10;99.90
75430;DHT22;64127;51.488;5.462;2023-01-15T14:05:26;9.00;99.90
75430;DHT22;64127;51.488;5.462;2023-01-15T14:08:01;8.90;99.90
75430;DHT22;64127;51.488;5.462;2023-01-15T14:10:44;8.80;99.90
75430;DHT22;64127;51.488;5.462;2023-01-15T14:19:14;8.80;99.90
75430;DHT22;64127;51.488;5.462;2023-01-15T14:22:30;8.80;99.90
75430;DHT22;64127;51.488;5.462;2023-01-15T14:32:11;9.00;99.90
75430;DHT22;64127;51.488;5.462;2023-01-15T14:34:55;8.90;99.90
75430;DHT22;64127;51.488;5.462;2023-01-15T14:37:46;8.80;99.90
75430;DHT22;64127;51.488;5.462;2023-01-15T14:40:30;8.80;99.90
75430;DHT22;64127;51.488;5.462;2023-01-15T14:43:13;8.70;99.90
75430;DHT22;64127;51.488;5.462;2023-01-15T14:45:50;8.60;99.90
75430;DHT22;64127;51.488;5.462;2023-01-15T14:51:27;8.60;99.90
75430;DHT22;64127;51.488;5.462;2023-01-15T14:54:07;8.60;99.90
75430;DHT22;64127;51.488;5.462;2023-01-15T14:56:55;8.60;99.90
75430;DHT22;64127;51.488;5.462;2023-01-15T15:02:34;8.50;99.90
75430;DHT22;64127;51.488;5.462;2023-01-15T15:05:15;8.50;99.90
75430;DHT22;64127;51.488;5.462;2023-01-15T15:07:50;8.50;99.90
75430;DHT22;64127;51.488;5.462;2023-01-15T15:10:24;8.50;99.90
75430;DHT22;64127;51.488;5.462;2023-01-15T15:13:15;8.50;99.90
75430;DHT22;64127;51.488;5.462;2023-01-15T15:19:10;8.40;99.90
75430;DHT22;64127;51.488;5.462;2023-01-15T15:21:47;8.40;99.90
75430;DHT22;64127;51.488;5.462;2023-01-15T15:24:32;8.40;99.90
75430;DHT22;64127;51.488;5.462;2023-01-15T15:27:18;8.30;99.90
75430;DHT22;64127;51.488;5.462;2023-01-15T15:30:05;8.30;99.90
75430;DHT22;64127;51.488;5.462;2023-01-15T15:32:38;8.30;99.90
75430;DHT22;64127;51.488;5.462;2023-01-15T15:35:24;8.20;99.90
75430;DHT22;64127;51.488;5.462;2023-01-15T15:38:03;8.20;99.90
75430;DHT22;64127;51.488;5.462;2023-01-15T15:40:36;8.20;99.90
75430;DHT22;64127;51.488;5.462;2023-01-15T15:46:30;8.10;99.90
75430;DHT22;64127;51.488;5.462;2023-01-15T15:49:21;8.10;99.90
75430;DHT22;64127;51.488;5.462;2023-01-15T15:51:53;8.00;99.90
75430;DHT22;64127;51.488;5.462;2023-01-15T15:54:28;8.00;99.90
75430;DHT22;64127;51.488;5.462;2023-01-15T15:59:49;7.90;99.90
75430;DHT22;64127;51.488;5.462;2023-01-15T16:02:38;8.00;99.90
75430;DHT22;64127;51.488;5.462;2023-01-15T16:07:53;8.00;99.90
75430;DHT22;64127;51.488;5.462;2023-01-15T16:10:30;8.00;99.90
75430;DHT22;64127;51.488;5.462;2023-01-15T16:13:04;8.00;99.90
75430;DHT22;64127;51.488;5.462;2023-01-15T16:15:41;7.90;99.90
75430;DHT22;64127;51.488;5.462;2023-01-15T16:18:43;8.00;99.90
75430;DHT22;64127;51.488;5.462;2023-01-15T16:21:25;7.90;99.90
75430;DHT22;64127;51.488;5.462;2023-01-15T16:24:05;7.90;99.90
75430;DHT22;64127;51.488;5.462;2023-01-15T16:26:45;7.90;99.90
75430;DHT22;64127;51.488;5.462;2023-01-15T16:29:26;7.90;99.90
75430;DHT22;64127;51.488;5.462;2023-01-15T16:32:08;7.80;99.90
75430;DHT22;64127;51.488;5.462;2023-01-15T16:34:44;7.80;99.90
75430;DHT22;64127;51.488;5.462;2023-01-15T16:37:26;7.80;99.90
75430;DHT22;64127;51.488;5.462;2023-01-15T16:40:04;7.80;99.90
75430;DHT22;64127;51.488;5.462;2023-01-15T16:42:38;7.80;99.90
75430;DHT22;64127;51.488;5.462;2023-01-15T16:45:26;7.80;99.90
75430;DHT22;64127;51.488;5.462;2023-01-15T16:50:39;7.70;99.90
75430;DHT22;64127;51.488;5.462;2023-01-15T16:53:39;7.70;99.90
75430;DHT22;64127;51.488;5.462;2023-01-15T16:59:38;7.70;99.90
75430;DHT22;64127;51.488;5.462;2023-01-15T17:02:46;7.70;99.90
75430;DHT22;64127;51.488;5.462;2023-01-15T17:05:22;7.60;99.90
75430;DHT22;64127;51.488;5.462;2023-01-15T17:07:55;7.50;99.90
75430;DHT22;64127;51.488;5.462;2023-01-15T17:10:28;7.50;99.90
75430;DHT22;64127;51.488;5.462;2023-01-15T17:13:02;7.50;99.90
75430;DHT22;64127;51.488;5.462;2023-01-15T17:15:38;7.50;99.90
75430;DHT22;64127;51.488;5.462;2023-01-15T17:18:20;7.40;99.90
75430;DHT22;64127;51.488;5.462;2023-01-15T17:20:57;7.40;99.90
75430;DHT22;64127;51.488;5.462;2023-01-15T17:23:33;7.40;99.90
75430;DHT22;64127;51.488;5.462;2023-01-15T17:26:17;7.30;99.90
75430;DHT22;64127;51.488;5.462;2023-01-15T17:28:54;7.30;99.90
75430;DHT22;64127;51.488;5.462;2023-01-15T17:31:28;7.30;99.90
75430;DHT22;64127;51.488;5.462;2023-01-15T17:34:02;7.30;99.90
75430;DHT22;64127;51.488;5.462;2023-01-15T17:36:34;7.30;99.90
75430;DHT22;64127;51.488;5.462;2023-01-15T17:39:06;7.30;99.90
75430;DHT22;64127;51.488;5.462;2023-01-15T17:41:43;7.30;99.90
75430;DHT22;64127;51.488;5.462;2023-01-15T17:44:16;7.30;99.90
75430;DHT22;64127;51.488;5.462;2023-01-15T17:46:48;7.30;99.90
75430;DHT22;64127;51.488;5.462;2023-01-15T17:49:22;7.30;99.90
75430;DHT22;64127;51.488;5.462;2023-01-15T17:51:54;7.20;99.90
75430;DHT22;64127;51.488;5.462;2023-01-15T17:54:26;7.30;99.90
75430;DHT22;64127;51.488;5.462;2023-01-15T17:57:17;7.20;99.90
75430;DHT22;64127;51.488;5.462;2023-01-15T18:00:09;7.10;99.90
75430;DHT22;64127;51.488;5.462;2023-01-15T18:03:00;7.10;99.90
75430;DHT22;64127;51.488;5.462;2023-01-15T18:05:51;7.10;99.90
75430;DHT22;64127;51.488;5.462;2023-01-15T18:08:23;7.00;99.90
75430;DHT22;64127;51.488;5.462;2023-01-15T18:10:55;7.00;99.90
75430;DHT22;64127;51.488;5.462;2023-01-15T18:13:27;6.90;99.90
75430;DHT22;64127;51.488;5.462;2023-01-15T18:15:59;6.90;99.90
75430;DHT22;64127;51.488;5.462;2023-01-15T18:18:31;6.90;99.90
75430;DHT22;64127;51.488;5.462;2023-01-15T18:21:03;6.90;99.90
75430;DHT22;64127;51.488;5.462;2023-01-15T18:23:35;6.80;99.90
75430;DHT22;64127;51.488;5.462;2023-01-15T18:26:10;6.80;99.90
75430;DHT22;64127;51.488;5.462;2023-01-15T18:28:42;6.80;99.90
75430;DHT22;64127;51.488;5.462;2023-01-15T18:31:16;6.80;99.90
75430;DHT22;64127;51.488;5.462;2023-01-15T18:33:48;6.80;99.90
75430;DHT22;64127;51.488;5.462;2023-01-15T18:36:20;6.80;99.90
75430;DHT22;64127;51.488;5.462;2023-01-15T18:38:52;6.80;99.90
75430;DHT22;64127;51.488;5.462;2023-01-15T18:41:26;6.80;99.90
75430;DHT22;64127;51.488;5.462;2023-01-15T18:44:13;6.80;99.90
75430;DHT22;64127;51.488;5.462;2023-01-15T18:47:08;6.80;99.90
75430;DHT22;64127;51.488;5.462;2023-01-15T18:49:45;6.80;99.90
75430;DHT22;64127;51.488;5.462;2023-01-15T18:52:17;6.80;99.90
75430;DHT22;64127;51.488;5.462;2023-01-15T18:55:08;6.80;99.90
75430;DHT22;64127;51.488;5.462;2023-01-15T18:57:40;6.70;99.90